createdAt,value
2019-06-08T00:02:23.994Z,8.60
2019-06-08T00:05:27.707Z,8.50
2019-06-08T00:08:31.444Z,9.53
2019-06-08T00:11:35.146Z,11.20
2019-06-08T00:14:39.224Z,9.37
2019-06-08T00:17:42.952Z,7.30
2019-06-08T00:20:47.010Z,9.20
2019-06-08T00:23:50.748Z,9.77
2019-06-08T00:26:54.446Z,8.90
2019-06-08T00:29:58.426Z,8.57
2019-06-08T00:33:02.148Z,6.20
2019-06-08T00:36:05.844Z,6.43
2019-06-08T00:39:09.824Z,4.93
2019-06-08T00:42:13.538Z,5.13
2019-06-08T00:45:17.591Z,4.37
2019-06-08T00:48:22.569Z,4.97
2019-06-08T00:51:26.621Z,4.80
2019-06-08T00:54:30.321Z,4.70
2019-06-08T00:57:34.590Z,4.60
2019-06-08T01:00:38.757Z,4.30
2019-06-08T01:03:42.480Z,3.30
2019-06-08T01:06:46.202Z,3.80
2019-06-08T01:09:50.218Z,3.77
2019-06-08T01:12:54.015Z,3.77
2019-06-08T01:15:58.056Z,3.53
2019-06-08T01:19:01.845Z,3.20
2019-06-08T01:22:05.622Z,3.90
2019-06-08T01:25:09.717Z,3.10
2019-06-08T01:28:13.690Z,3.57
2019-06-08T01:31:17.416Z,3.53
2019-06-08T01:34:22.792Z,3.50
2019-06-08T01:37:27.047Z,2.73
2019-06-08T01:40:31.531Z,3.10
2019-06-08T01:43:35.296Z,2.63
2019-06-08T01:46:39.168Z,2.80
2019-06-08T01:49:42.915Z,3.20
2019-06-08T01:52:46.627Z,3.30
2019-06-08T01:55:50.662Z,2.33
2019-06-08T01:58:54.423Z,2.73
2019-06-08T02:01:58.457Z,2.60
2019-06-08T02:05:02.414Z,2.90
2019-06-08T02:08:06.226Z,2.90
2019-06-08T02:11:10.397Z,2.70
2019-06-08T02:14:14.099Z,3.07
2019-06-08T02:17:18.259Z,3.50
2019-06-08T02:20:22.275Z,3.33
2019-06-08T02:23:26.965Z,2.60
2019-06-08T02:26:32.084Z,3.03
2019-06-08T02:29:36.108Z,3.10
2019-06-08T02:32:40.590Z,2.97
2019-06-08T02:35:44.342Z,3.07
2019-06-08T02:38:48.199Z,3.23
2019-06-08T02:41:51.908Z,2.70
2019-06-08T02:44:55.856Z,2.70
2019-06-08T02:47:59.566Z,2.90
2019-06-08T02:51:04.075Z,2.87
2019-06-08T02:54:07.776Z,1.87
2019-06-08T02:57:13.657Z,2.10
2019-06-08T03:00:17.621Z,2.20
2019-06-08T03:03:21.691Z,2.10
2019-06-08T03:06:30.366Z,2.07
2019-06-08T03:09:36.512Z,2.50
2019-06-08T03:12:42.527Z,2.00
2019-06-08T03:15:45.950Z,2.17
2019-06-08T03:18:49.768Z,2.30
2019-06-08T03:21:53.477Z,1.90
2019-06-08T03:24:57.162Z,2.37
2019-06-08T03:28:01.349Z,1.77
2019-06-08T03:31:05.421Z,1.67
2019-06-08T03:34:09.320Z,2.07
2019-06-08T03:37:13.051Z,2.00
2019-06-08T03:40:17.798Z,1.83
2019-06-08T03:43:21.508Z,1.80
2019-06-08T03:46:25.209Z,2.27
2019-06-08T03:49:42.954Z,2.00
2019-06-08T03:52:37.645Z,1.70
2019-06-08T03:55:43.056Z,2.10
2019-06-08T03:58:48.021Z,1.60
2019-06-08T04:01:52.229Z,1.80
2019-06-08T04:04:55.943Z,2.17
2019-06-08T04:07:59.646Z,2.23
2019-06-08T04:11:03.654Z,1.60
2019-06-08T04:14:07.535Z,1.60
2019-06-08T04:17:11.487Z,1.67
2019-06-08T04:20:15.776Z,1.43
2019-06-08T04:23:19.883Z,1.83
2019-06-08T04:26:23.899Z,1.53
2019-06-08T04:29:27.647Z,1.80
2019-06-08T04:32:32.262Z,1.80
2019-06-08T04:35:38.025Z,1.50
2019-06-08T04:38:43.148Z,1.90
2019-06-08T04:41:47.277Z,1.90
2019-06-08T04:44:50.985Z,1.30
2019-06-08T04:47:55.501Z,1.37
2019-06-08T04:50:59.284Z,1.70
2019-06-08T04:54:02.997Z,1.30
2019-06-08T04:57:06.702Z,1.70
2019-06-08T05:00:12.673Z,1.50
2019-06-08T05:03:16.399Z,1.30
2019-06-08T05:06:20.120Z,1.07
2019-06-08T05:09:24.182Z,1.43
2019-06-08T05:12:28.002Z,1.10
2019-06-08T05:15:31.800Z,1.33
2019-06-08T05:18:35.571Z,1.20
2019-06-08T05:21:39.590Z,1.30
2019-06-08T05:24:43.527Z,1.20
2019-06-08T05:27:47.406Z,1.30
2019-06-08T05:30:51.151Z,1.00
2019-06-08T05:33:54.853Z,1.20
2019-06-08T05:36:58.578Z,1.20
2019-06-08T05:40:02.637Z,1.13
2019-06-08T05:43:06.314Z,1.40
2019-06-08T05:46:10.360Z,1.07
2019-06-08T05:49:14.066Z,1.20
2019-06-08T05:52:18.470Z,1.20
2019-06-08T05:55:22.242Z,0.93
2019-06-08T05:58:26.023Z,1.30
2019-06-08T06:01:29.728Z,1.50
2019-06-08T06:04:33.499Z,1.33
2019-06-08T06:07:37.213Z,1.10
2019-06-08T06:10:40.920Z,1.20
2019-06-08T06:13:45.192Z,1.30
2019-06-08T06:16:49.171Z,1.07
2019-06-08T06:19:52.988Z,1.10
2019-06-08T06:22:58.596Z,0.93
2019-06-08T06:26:02.589Z,0.90
2019-06-08T06:29:06.445Z,1.10
2019-06-08T06:32:10.429Z,0.93
2019-06-08T06:35:14.462Z,1.10
2019-06-08T06:38:18.247Z,1.20
2019-06-08T06:41:22.352Z,1.10
2019-06-08T06:44:26.056Z,0.93
2019-06-08T06:47:31.243Z,1.30
2019-06-08T06:50:35.237Z,1.37
2019-06-08T06:53:38.944Z,1.00
2019-06-08T06:56:43.155Z,1.27
2019-06-08T06:59:47.443Z,1.20
2019-06-08T07:02:51.802Z,1.13
2019-06-08T07:05:55.815Z,1.20
2019-06-08T07:08:59.776Z,1.10
2019-06-08T07:12:03.540Z,1.00
2019-06-08T07:15:08.229Z,1.03
2019-06-08T07:18:12.183Z,1.17
2019-06-08T07:21:16.166Z,1.30
2019-06-08T07:24:19.880Z,1.00
2019-06-08T07:27:23.675Z,1.00
2019-06-08T07:30:27.426Z,1.20
2019-06-08T07:33:31.114Z,1.00
2019-06-08T07:36:34.824Z,1.20
2019-06-08T07:39:38.569Z,1.03
2019-06-08T07:42:45.123Z,1.13
2019-06-08T07:45:49.853Z,0.93
2019-06-08T07:48:54.376Z,0.90
2019-06-08T07:52:09.493Z,1.00
2019-06-08T07:55:04.616Z,1.10
2019-06-08T07:58:08.332Z,1.57
2019-06-08T08:01:12.150Z,1.30
2019-06-08T08:04:16.137Z,1.80
2019-06-08T08:07:19.861Z,1.00
2019-06-08T08:10:23.731Z,1.37
2019-06-08T08:13:27.430Z,1.10
2019-06-08T08:16:31.536Z,1.23
2019-06-08T08:19:35.359Z,1.40
2019-06-08T08:22:39.117Z,1.20
2019-06-08T08:25:42.843Z,1.30
2019-06-08T08:28:50.065Z,1.20
2019-06-08T08:31:53.394Z,1.23
2019-06-08T08:34:59.226Z,1.30
2019-06-08T08:38:04.607Z,1.30
2019-06-08T08:41:10.904Z,1.63
2019-06-08T08:44:14.349Z,1.30
2019-06-08T08:47:18.802Z,1.10
2019-06-08T08:50:22.743Z,1.10
2019-06-08T08:53:27.996Z,1.40
2019-06-08T08:56:31.769Z,1.10
2019-06-08T08:59:38.119Z,1.30
2019-06-08T09:02:41.413Z,1.13
2019-06-08T09:05:45.570Z,1.10
2019-06-08T09:08:49.384Z,1.37
2019-06-08T09:11:54.882Z,1.40
2019-06-08T09:15:01.750Z,1.20
2019-06-08T09:18:04.242Z,1.30
2019-06-08T09:21:08.533Z,1.33
2019-06-08T09:24:12.593Z,1.23
2019-06-08T09:27:17.960Z,1.20
2019-06-08T09:30:21.898Z,1.27
2019-06-08T09:33:25.597Z,1.00
2019-06-08T09:36:29.466Z,1.43
2019-06-08T09:39:33.426Z,1.30
2019-06-08T09:42:37.136Z,1.23
2019-06-08T09:45:40.897Z,1.50
2019-06-08T09:48:44.600Z,1.10
2019-06-08T09:51:48.777Z,1.47
2019-06-08T09:54:54.177Z,1.43
2019-06-08T09:58:01.918Z,1.23
2019-06-08T10:01:05.733Z,1.00
2019-06-08T10:04:09.440Z,1.13
2019-06-08T10:07:13.381Z,1.60
2019-06-08T10:10:18.134Z,1.43
2019-06-08T10:13:22.051Z,1.10
2019-06-08T10:16:28.021Z,1.30
2019-06-08T10:19:31.175Z,1.47
2019-06-08T10:22:34.871Z,1.20
2019-06-08T10:25:38.655Z,2.30
2019-06-08T10:28:42.369Z,1.40
2019-06-08T10:31:48.202Z,1.67
2019-06-08T10:34:51.910Z,1.40
2019-06-08T10:37:58.543Z,1.20
2019-06-08T10:41:10.761Z,1.57
2019-06-08T10:44:11.750Z,1.57
2019-06-08T10:47:13.510Z,1.10
2019-06-08T10:50:19.177Z,1.20
2019-06-08T10:53:23.026Z,1.30
2019-06-08T10:56:28.414Z,1.00
2019-06-08T10:59:32.512Z,1.40
2019-06-08T11:02:37.613Z,1.27
2019-06-08T11:05:41.643Z,1.30
2019-06-08T11:08:45.374Z,1.30
2019-06-08T11:11:49.111Z,1.20
2019-06-08T11:14:52.811Z,1.23
2019-06-08T11:18:00.397Z,1.10
2019-06-08T11:21:03.662Z,1.30
2019-06-08T11:24:23.341Z,1.57
2019-06-08T11:27:13.756Z,1.20
2019-06-08T11:30:23.634Z,1.40
2019-06-08T11:33:23.294Z,1.07
2019-06-08T11:36:28.184Z,1.40
2019-06-08T11:39:32.031Z,1.33
2019-06-08T11:42:38.632Z,1.50
2019-06-08T11:45:41.734Z,1.43
2019-06-08T11:48:45.487Z,1.57
2019-06-08T11:51:49.198Z,1.27
2019-06-08T11:54:52.888Z,1.77
2019-06-08T11:57:58.608Z,1.50
2019-06-08T12:01:11.642Z,1.40
2019-06-08T12:04:12.927Z,1.43
2019-06-08T12:07:16.794Z,1.40
2019-06-08T12:10:20.806Z,1.60
2019-06-08T12:13:27.603Z,1.40
2019-06-08T12:16:30.293Z,1.53
2019-06-08T12:19:33.986Z,1.40
2019-06-08T12:22:40.108Z,1.60
2019-06-08T12:25:43.185Z,1.30
2019-06-08T12:28:48.608Z,1.27
2019-06-08T12:31:52.466Z,1.60
2019-06-08T12:34:59.743Z,1.33
2019-06-08T12:38:01.657Z,1.10
2019-06-08T12:41:07.942Z,1.30
2019-06-08T12:44:14.632Z,1.80
2019-06-08T12:47:20.866Z,1.30
2019-06-08T12:50:22.153Z,1.50
2019-06-08T12:53:28.141Z,1.60
2019-06-08T12:56:31.472Z,1.30
2019-06-08T12:59:35.551Z,1.50
2019-06-08T13:02:39.691Z,1.43
2019-06-08T13:05:43.480Z,1.30
2019-06-08T13:08:47.777Z,1.90
2019-06-08T13:11:51.997Z,1.57
2019-06-08T13:14:58.052Z,2.10
2019-06-08T13:18:01.552Z,1.33
2019-06-08T13:21:18.705Z,1.33
2019-06-08T13:24:11.346Z,1.33
2019-06-08T13:27:17.669Z,1.40
2019-06-08T13:30:25.891Z,1.43
2019-06-08T13:33:28.062Z,1.30
2019-06-08T13:36:32.200Z,1.40
2019-06-08T13:39:38.661Z,1.17
2019-06-08T13:42:42.187Z,1.27
2019-06-08T13:45:49.034Z,1.17
2019-06-08T13:48:51.545Z,1.40
2019-06-08T13:51:58.136Z,1.20
2019-06-08T13:55:00.787Z,1.23
2019-06-08T13:58:04.593Z,1.40
2019-06-08T14:01:09.977Z,2.30
2019-06-08T14:04:14.979Z,2.70
2019-06-08T14:07:24.536Z,1.57
2019-06-08T14:10:33.931Z,1.50
2019-06-08T14:13:38.120Z,1.10
2019-06-08T14:16:42.833Z,1.90
2019-06-08T14:19:48.331Z,1.40
2019-06-08T14:22:52.197Z,1.40
2019-06-08T14:25:59.416Z,1.10
2019-06-08T14:29:02.070Z,1.50
2019-06-08T14:32:07.832Z,1.20
2019-06-08T14:35:11.190Z,1.73
2019-06-08T14:38:14.895Z,1.40
2019-06-08T14:41:19.799Z,1.40
2019-06-08T14:44:24.112Z,1.60
2019-06-08T14:47:30.030Z,1.77
2019-06-08T14:50:33.561Z,1.73
2019-06-08T14:53:38.688Z,1.90
2019-06-08T14:56:42.507Z,1.70
2019-06-08T14:59:50.092Z,1.73
2019-06-08T15:02:51.971Z,1.30
2019-06-08T15:05:57.758Z,1.50
2019-06-08T15:09:01.933Z,1.70
2019-06-08T15:12:06.167Z,1.27
2019-06-08T15:15:11.193Z,1.40
2019-06-08T15:18:15.207Z,1.60
2019-06-08T15:21:21.349Z,1.60
2019-06-08T15:24:24.657Z,1.50
2019-06-08T15:27:31.978Z,1.23
2019-06-08T15:30:33.892Z,1.23
2019-06-08T15:33:38.406Z,2.30
2019-06-08T15:36:42.183Z,1.20
2019-06-08T15:39:48.650Z,1.10
2019-06-08T15:42:51.933Z,1.47
2019-06-08T15:45:58.952Z,1.30
2019-06-08T15:49:01.380Z,1.40
2019-06-08T15:52:05.408Z,1.20
2019-06-08T15:55:11.262Z,1.57
2019-06-08T15:58:17.821Z,1.50
2019-06-08T16:01:21.276Z,1.43
2019-06-08T16:04:25.686Z,1.30
2019-06-08T16:07:31.282Z,1.67
2019-06-08T16:10:34.860Z,1.50
2019-06-08T16:13:38.826Z,1.47
2019-06-08T16:16:42.519Z,1.40
2019-06-08T16:19:46.239Z,1.33
2019-06-08T16:22:50.183Z,1.30
2019-06-08T16:25:54.011Z,1.73
2019-06-08T16:28:58.027Z,1.30
2019-06-08T16:32:01.993Z,1.60
2019-06-08T16:35:06.637Z,1.37
2019-06-08T16:38:10.590Z,1.50
2019-06-08T16:41:14.313Z,1.50
2019-06-08T16:44:18.356Z,1.50
2019-06-08T16:47:22.071Z,1.17
2019-06-08T16:50:25.795Z,1.40
2019-06-08T16:53:29.836Z,1.70
2019-06-08T16:56:34.152Z,1.47
2019-06-08T16:59:38.705Z,1.50
2019-06-08T17:02:42.631Z,1.43
2019-06-08T17:06:01.584Z,1.40
2019-06-08T17:09:16.809Z,1.70
2019-06-08T17:12:25.278Z,1.40
2019-06-08T17:15:56.253Z,1.60
2019-06-08T17:19:13.332Z,1.50
2019-06-08T17:22:22.541Z,1.47
2019-06-08T17:25:42.612Z,1.30
2019-06-08T17:28:56.873Z,1.63
2019-06-08T17:32:00.605Z,1.47
2019-06-08T17:35:04.706Z,1.87
2019-06-08T17:38:08.686Z,1.30
2019-06-08T17:41:12.812Z,1.40
2019-06-08T17:44:16.545Z,1.57
2019-06-08T17:47:23.867Z,1.73
2019-06-08T17:50:26.072Z,1.30
2019-06-08T17:53:30.310Z,1.70
2019-06-08T17:56:35.150Z,1.60
2019-06-08T17:59:39.510Z,1.43
2019-06-08T18:02:45.238Z,1.53
2019-06-08T18:05:49.080Z,1.57
2019-06-08T18:08:53.427Z,1.33
2019-06-08T18:11:59.251Z,1.50
2019-06-08T18:15:02.621Z,1.10
2019-06-08T18:18:08.584Z,1.30
2019-06-08T18:21:12.417Z,1.50
2019-06-08T18:24:17.541Z,1.30
2019-06-08T18:27:21.517Z,1.40
2019-06-08T18:30:27.488Z,1.50
2019-06-08T18:33:30.811Z,1.50
2019-06-08T18:36:35.627Z,1.40
2019-06-08T18:39:42.730Z,1.50
2019-06-08T18:42:48.470Z,1.30
2019-06-08T18:45:51.782Z,1.40
2019-06-08T18:48:57.922Z,1.30
2019-06-08T18:52:02.068Z,1.43
2019-06-08T18:55:08.185Z,1.50
2019-06-08T18:58:20.663Z,1.47
2019-06-08T19:01:21.632Z,1.40
2019-06-08T19:04:22.757Z,1.50
2019-06-08T19:07:28.320Z,1.80
2019-06-08T19:10:33.613Z,1.30
2019-06-08T19:13:38.095Z,1.57
2019-06-08T19:16:44.323Z,1.40
2019-06-08T19:19:52.006Z,1.60
2019-06-08T19:22:54.396Z,1.60
2019-06-08T19:26:00.405Z,1.50
2019-06-08T19:29:03.703Z,1.80
2019-06-08T19:32:07.531Z,1.53
2019-06-08T19:35:11.741Z,1.53
2019-06-08T19:38:17.982Z,1.47
2019-06-08T19:41:21.175Z,1.40
2019-06-08T19:44:24.889Z,1.30
2019-06-08T19:47:28.828Z,1.43
2019-06-08T19:50:32.820Z,1.70
2019-06-08T19:53:42.202Z,1.47
2019-06-08T19:56:43.247Z,1.53
2019-06-08T19:59:47.566Z,1.83
2019-06-08T20:02:53.312Z,1.93
2019-06-08T20:05:56.695Z,1.70
2019-06-08T20:09:00.697Z,1.30
2019-06-08T20:12:04.476Z,2.00
2019-06-08T20:15:08.759Z,1.70
2019-06-08T20:18:12.515Z,1.90
2019-06-08T20:21:18.132Z,1.80
2019-06-08T20:24:21.849Z,1.80
2019-06-08T20:27:27.581Z,1.80
2019-06-08T20:30:31.334Z,2.03
2019-06-08T20:33:37.680Z,1.80
2019-06-08T20:36:40.516Z,1.40
2019-06-08T20:39:59.416Z,2.17
2019-06-08T20:42:53.301Z,1.90
2019-06-08T20:45:57.390Z,1.73
2019-06-08T20:49:00.795Z,1.87
2019-06-08T20:52:04.609Z,1.63
2019-06-08T20:55:08.487Z,1.77
2019-06-08T20:58:12.208Z,1.90
2019-06-08T21:01:17.869Z,1.87
2019-06-08T21:04:21.644Z,1.67
2019-06-08T21:07:25.391Z,1.50
2019-06-08T21:10:29.436Z,1.60
2019-06-08T21:13:33.455Z,1.67
2019-06-08T21:16:38.299Z,1.77
2019-06-08T21:19:42.339Z,1.47
2019-06-08T21:22:50.020Z,1.30
2019-06-08T21:25:53.640Z,1.50
2019-06-08T21:29:00.480Z,1.50
2019-06-08T21:32:02.965Z,1.30
2019-06-08T21:35:07.614Z,1.30
2019-06-08T21:38:23.385Z,1.43
2019-06-08T21:41:17.263Z,1.23
2019-06-08T21:44:21.270Z,1.60
2019-06-08T21:47:27.136Z,1.30
2019-06-08T21:50:30.428Z,1.30
2019-06-08T21:53:34.254Z,1.10
2019-06-08T21:56:38.276Z,1.40
2019-06-08T21:59:42.310Z,1.30
2019-06-08T22:02:47.986Z,1.40
2019-06-08T22:05:51.789Z,1.23
2019-06-08T22:08:58.861Z,1.17
2019-06-08T22:12:01.143Z,1.47
2019-06-08T22:15:07.518Z,1.10
2019-06-08T22:18:12.053Z,1.60
2019-06-08T22:21:17.988Z,1.30
2019-06-08T22:24:21.476Z,1.33
2019-06-08T22:27:27.253Z,1.33
2019-06-08T22:30:39.115Z,1.33
2019-06-08T22:33:37.789Z,1.40
2019-06-08T22:36:42.441Z,1.30
2019-06-08T22:39:47.894Z,1.47
2019-06-08T22:42:52.515Z,1.20
2019-06-08T22:45:58.907Z,1.60
2019-06-08T22:49:02.801Z,1.30
2019-06-08T22:52:08.172Z,1.30
2019-06-08T22:55:12.274Z,1.20
2019-06-08T22:58:19.127Z,1.23
2019-06-08T23:01:22.025Z,1.30
2019-06-08T23:04:27.624Z,1.40
2019-06-08T23:07:32.802Z,1.20
2019-06-08T23:10:37.474Z,1.40
2019-06-08T23:13:41.684Z,8.27
2019-06-08T23:16:47.182Z,1.93
2019-06-08T23:19:51.065Z,2.23
2019-06-08T23:22:55.669Z,1.40
2019-06-08T23:26:02.516Z,1.50
2019-06-08T23:29:07.773Z,1.33
2019-06-08T23:32:11.820Z,1.13
2019-06-08T23:35:17.982Z,1.30
2019-06-08T23:38:21.560Z,1.10
2019-06-08T23:41:27.279Z,1.57
2019-06-08T23:44:31.445Z,1.40
2019-06-08T23:47:35.283Z,1.60
2019-06-08T23:50:39.169Z,1.40
2019-06-08T23:53:43.144Z,1.60
2019-06-08T23:56:47.684Z,1.40
2019-06-08T23:59:51.909Z,1.67
